createdAt,value
2019-05-01T00:00:27.066Z,26.20
2019-05-01T00:01:27.084Z,27.40
2019-05-01T00:02:27.103Z,27.20
2019-05-01T00:03:27.062Z,26.40
2019-05-01T00:04:27.016Z,27.40
2019-05-01T00:05:27.031Z,27.00
2019-05-01T00:06:26.994Z,27.30
2019-05-01T00:07:26.989Z,28.30
2019-05-01T00:08:27.025Z,27.00
2019-05-01T00:09:26.964Z,27.50
2019-05-01T00:10:26.973Z,26.40
2019-05-01T00:11:26.953Z,27.30
2019-05-01T00:12:26.935Z,27.10
2019-05-01T00:13:26.940Z,26.10
2019-05-01T00:14:26.918Z,26.70
2019-05-01T00:15:26.973Z,27.70
2019-05-01T00:16:26.896Z,26.80
2019-05-01T00:17:27.896Z,27.70
2019-05-01T00:18:26.893Z,26.10
2019-05-01T00:19:26.855Z,25.90
2019-05-01T00:20:26.844Z,26.40
2019-05-01T00:21:26.852Z,27.50
2019-05-01T00:22:26.829Z,27.30
2019-05-01T00:23:26.915Z,27.50
2019-05-01T00:24:34.541Z,27.10
2019-05-01T00:25:26.876Z,26.40
2019-05-01T00:26:34.450Z,26.90
2019-05-01T00:27:35.726Z,27.90
2019-05-01T00:28:26.933Z,27.90
2019-05-01T00:30:42.580Z,26.10
2019-05-01T00:31:42.508Z,27.60
2019-05-01T00:32:51.407Z,26.90
2019-05-01T00:33:42.499Z,28.20
2019-05-01T00:34:50.225Z,27.60
2019-05-01T00:35:42.454Z,27.60
2019-05-01T00:36:51.737Z,28.90
2019-05-01T00:37:42.420Z,27.90
2019-05-01T00:38:50.019Z,26.80
2019-05-01T00:39:42.453Z,27.20
2019-05-01T00:40:51.306Z,29.20
2019-05-01T00:41:42.395Z,24.90
2019-05-01T00:42:50.055Z,27.40
2019-05-01T00:43:42.386Z,26.20
2019-05-01T00:44:50.068Z,28.80
2019-05-01T00:45:42.348Z,28.30
2019-05-01T00:46:51.267Z,27.50
2019-05-01T00:47:42.379Z,28.50
2019-05-01T00:49:52.215Z,25.70
2019-05-01T00:50:52.039Z,27.60
2019-05-01T00:52:00.956Z,27.70
2019-05-01T00:52:52.031Z,26.10
2019-05-01T00:53:52.006Z,27.80
2019-05-01T00:55:00.646Z,26.80
2019-05-01T00:55:52.023Z,27.00
2019-05-01T00:57:00.687Z,27.10
2019-05-01T00:57:51.971Z,27.30
2019-05-01T00:59:00.570Z,28.30
2019-05-01T00:59:51.982Z,27.50
2019-05-01T01:00:52.016Z,27.70
2019-05-01T01:01:51.933Z,27.20
2019-05-01T01:02:51.921Z,28.50
2019-05-01T01:03:51.925Z,26.20
2019-05-01T01:04:51.930Z,27.40
2019-05-01T01:05:51.940Z,26.50
2019-05-01T01:06:51.866Z,27.50
2019-05-01T01:07:51.858Z,26.40
2019-05-01T01:08:51.842Z,26.70
2019-05-01T01:09:51.840Z,27.30
2019-05-01T01:10:51.834Z,27.40
2019-05-01T01:11:51.831Z,28.40
2019-05-01T01:12:51.819Z,28.00
2019-05-01T01:14:00.425Z,27.20
2019-05-01T01:14:51.778Z,26.50
2019-05-01T01:15:51.768Z,26.50
2019-05-01T01:16:51.794Z,27.90
2019-05-01T01:17:51.741Z,27.40
2019-05-01T01:18:51.735Z,26.80
2019-05-01T01:19:51.721Z,26.90
2019-05-01T01:20:51.727Z,27.60
2019-05-01T01:21:51.704Z,26.10
2019-05-01T01:22:51.713Z,26.00
2019-05-01T01:23:51.715Z,27.70
2019-05-01T01:24:51.664Z,27.10
2019-05-01T01:25:51.659Z,26.10
2019-05-01T01:26:51.652Z,26.20
2019-05-01T01:27:51.662Z,26.10
2019-05-01T01:28:59.179Z,26.40
2019-05-01T01:29:51.617Z,26.60
2019-05-01T01:31:00.155Z,26.40
2019-05-01T01:31:51.593Z,28.00
2019-05-01T01:32:51.622Z,27.30
2019-05-01T01:33:51.574Z,27.90
2019-05-01T01:34:51.565Z,27.50
2019-05-01T01:35:51.555Z,27.10
2019-05-01T01:36:51.541Z,25.80
2019-05-01T01:37:51.532Z,26.50
2019-05-01T01:38:51.538Z,27.30
2019-05-01T01:39:51.513Z,27.00
2019-05-01T01:40:51.505Z,27.90
2019-05-01T01:41:51.501Z,27.60
2019-05-01T01:42:51.494Z,27.50
2019-05-01T01:43:51.486Z,26.70
2019-05-01T01:44:51.461Z,27.00
2019-05-01T01:45:51.444Z,27.40
2019-05-01T01:46:51.433Z,27.10
2019-05-01T01:47:51.429Z,27.10
2019-05-01T01:48:51.458Z,28.00
2019-05-01T01:49:51.409Z,26.80
2019-05-01T01:50:51.395Z,27.70
2019-05-01T01:51:51.379Z,26.70
2019-05-01T01:52:51.373Z,28.50
2019-05-01T01:53:51.354Z,27.60
2019-05-01T01:54:51.369Z,27.60
2019-05-01T01:55:51.334Z,27.00
2019-05-01T01:56:51.329Z,28.10
2019-05-01T01:57:51.315Z,27.70
2019-05-01T01:58:51.303Z,30.30
2019-05-01T01:59:51.304Z,27.10
2019-05-01T02:00:51.312Z,27.70
2019-05-01T02:01:51.280Z,27.70
2019-05-01T02:02:51.260Z,28.60
2019-05-01T02:03:51.254Z,27.30
2019-05-01T02:04:51.250Z,27.60
2019-05-01T02:05:51.258Z,30.30
2019-05-01T02:06:51.221Z,28.00
2019-05-01T02:07:51.208Z,30.00
2019-05-01T02:08:56.627Z,28.50
2019-05-01T02:09:52.180Z,27.10
2019-05-01T02:10:51.185Z,27.10
2019-05-01T02:11:51.185Z,27.50
2019-05-01T02:12:51.152Z,27.90
2019-05-01T02:13:51.143Z,28.20
2019-05-01T02:14:51.124Z,28.10
2019-05-01T02:15:51.120Z,27.80
2019-05-01T02:16:51.130Z,27.80
2019-05-01T02:17:51.101Z,28.00
2019-05-01T02:18:51.088Z,29.40
2019-05-01T02:19:51.081Z,28.40
2019-05-01T02:20:51.070Z,26.40
2019-05-01T02:21:51.085Z,27.10
2019-05-01T02:22:51.051Z,28.50
2019-05-01T02:23:51.043Z,27.10
2019-05-01T02:24:51.047Z,28.30
2019-05-01T02:25:51.042Z,27.50
2019-05-01T02:26:51.004Z,27.60
2019-05-01T02:27:51.021Z,27.60
2019-05-01T02:28:50.980Z,28.30
2019-05-01T02:29:50.974Z,27.40
2019-05-01T02:30:50.960Z,27.50
2019-05-01T02:31:50.953Z,28.50
2019-05-01T02:32:51.030Z,27.90
2019-05-01T02:33:58.590Z,28.10
2019-05-01T02:34:50.924Z,27.90
2019-05-01T02:35:58.634Z,28.80
2019-05-01T02:36:50.959Z,29.70
2019-05-01T02:37:58.858Z,29.10
2019-05-01T02:38:50.890Z,28.70
2019-05-01T02:39:58.515Z,27.70
2019-05-01T02:40:50.870Z,28.40
2019-05-01T02:41:58.487Z,29.30
2019-05-01T02:42:50.937Z,27.60
2019-05-01T02:43:59.963Z,27.20
2019-05-01T02:44:50.869Z,28.60
2019-05-01T02:47:00.649Z,27.60
2019-05-01T02:48:08.198Z,28.30
2019-05-01T02:49:00.615Z,30.20
2019-05-01T02:51:10.490Z,26.70
2019-05-01T02:52:17.898Z,28.40
2019-05-01T02:53:10.308Z,28.10
2019-05-01T02:55:21.113Z,27.70
2019-05-01T02:56:21.040Z,27.80
2019-05-01T02:57:28.621Z,28.40
2019-05-01T02:58:21.088Z,27.80
2019-05-01T03:00:39.738Z,27.40
2019-05-01T03:02:50.484Z,27.70
2019-05-01T03:03:50.452Z,27.70
2019-05-01T03:04:58.065Z,28.20
2019-05-01T03:05:50.426Z,27.30
2019-05-01T03:06:59.450Z,28.60
2019-05-01T03:07:50.443Z,27.00
2019-05-01T03:08:50.379Z,27.80
2019-05-01T03:09:50.331Z,29.50
2019-05-01T03:10:50.318Z,27.20
2019-05-01T03:11:50.309Z,28.00
2019-05-01T03:12:50.321Z,28.40
2019-05-01T03:13:50.324Z,27.30
2019-05-01T03:14:50.319Z,27.60
2019-05-01T03:15:57.964Z,27.10
2019-05-01T03:16:50.345Z,28.00
2019-05-01T03:17:50.266Z,27.90
2019-05-01T03:18:59.000Z,26.20
2019-05-01T03:19:50.231Z,27.20
2019-05-01T03:20:58.836Z,27.70
2019-05-01T03:21:50.225Z,28.40
2019-05-01T03:23:00.441Z,28.20
2019-05-01T03:23:50.216Z,28.10
2019-05-01T03:24:58.837Z,29.00
2019-05-01T03:25:50.167Z,30.00
2019-05-01T03:28:10.316Z,30.10
2019-05-01T03:29:19.094Z,28.20
2019-05-01T03:30:10.065Z,29.20
2019-05-01T03:31:19.000Z,28.60
2019-05-01T03:32:17.973Z,28.60
2019-05-01T03:34:32.894Z,29.00
2019-05-01T03:35:40.318Z,27.70
2019-05-01T03:36:32.670Z,28.50
2019-05-01T03:37:40.299Z,27.30
2019-05-01T03:38:32.634Z,30.10
2019-05-01T03:40:50.099Z,27.10
2019-05-01T03:43:00.787Z,26.30
2019-05-01T03:44:08.377Z,28.00
2019-05-01T03:45:00.736Z,29.60
2019-05-01T03:46:09.292Z,29.70
2019-05-01T03:47:00.674Z,29.80
2019-05-01T03:48:10.554Z,29.10
2019-05-01T03:49:00.679Z,29.00
2019-05-01T03:51:12.770Z,26.60
2019-05-01T03:52:21.371Z,27.80
2019-05-01T03:53:12.680Z,27.90
2019-05-01T03:54:20.325Z,27.50
2019-05-01T03:55:12.743Z,25.50
2019-05-01T03:56:21.546Z,28.10
2019-05-01T03:57:12.926Z,28.80
2019-05-01T03:58:20.277Z,27.70
2019-05-01T03:59:12.687Z,26.80
2019-05-01T04:00:20.301Z,27.40
2019-05-01T04:01:12.650Z,28.30
2019-05-01T04:02:33.018Z,29.20
2019-05-01T04:03:13.581Z,28.30
2019-05-01T04:04:20.278Z,28.30
2019-05-01T04:05:12.578Z,27.50
2019-05-01T04:06:12.590Z,26.90
2019-05-01T04:07:21.215Z,28.40
2019-05-01T04:08:12.533Z,29.50
2019-05-01T04:09:20.245Z,29.90
2019-05-01T04:10:12.542Z,30.10
2019-05-01T04:11:20.171Z,29.00
2019-05-01T04:12:12.518Z,30.40
2019-05-01T04:13:20.475Z,30.90
2019-05-01T04:14:12.483Z,28.50
2019-05-01T04:15:21.066Z,29.40
2019-05-01T04:16:12.455Z,29.30
2019-05-01T04:17:12.455Z,31.00
2019-05-01T04:18:12.414Z,30.60
2019-05-01T04:19:12.420Z,28.30
2019-05-01T04:20:12.397Z,30.10
2019-05-01T04:21:12.385Z,30.10
2019-05-01T04:22:12.387Z,29.50
2019-05-01T04:23:12.373Z,31.00
2019-05-01T04:24:12.405Z,32.30
2019-05-01T04:25:12.351Z,31.60
2019-05-01T04:26:12.334Z,32.60
2019-05-01T04:27:12.462Z,31.70
2019-05-01T04:28:12.345Z,31.80
2019-05-01T04:29:12.439Z,34.70
2019-05-01T04:30:12.330Z,33.90
2019-05-01T04:31:12.340Z,34.30
2019-05-01T04:32:12.445Z,36.50
2019-05-01T04:33:12.305Z,37.10
2019-05-01T04:34:12.265Z,38.60
2019-05-01T04:35:12.371Z,38.70
2019-05-01T04:36:12.298Z,39.60
2019-05-01T04:37:12.366Z,41.50
2019-05-01T04:38:12.315Z,40.10
2019-05-01T04:39:12.219Z,38.80
2019-05-01T04:40:12.336Z,41.90
2019-05-01T04:41:12.200Z,42.90
2019-05-01T04:42:12.266Z,43.40
2019-05-01T04:43:12.261Z,38.70
2019-05-01T04:44:12.167Z,41.50
2019-05-01T04:45:12.243Z,42.80
2019-05-01T04:46:12.232Z,40.50
2019-05-01T04:47:12.227Z,42.90
2019-05-01T04:48:12.106Z,40.90
2019-05-01T04:49:12.158Z,46.20
2019-05-01T04:50:12.178Z,45.60
2019-05-01T04:51:12.109Z,46.00
2019-05-01T04:52:12.113Z,45.90
2019-05-01T04:53:12.142Z,49.30
2019-05-01T04:54:12.086Z,47.80
2019-05-01T04:55:12.160Z,49.20
2019-05-01T04:56:12.035Z,49.80
2019-05-01T04:57:12.028Z,46.70
2019-05-01T04:58:12.021Z,46.70
2019-05-01T04:59:12.077Z,45.50
2019-05-01T05:00:12.116Z,47.30
2019-05-01T05:01:12.037Z,49.30
2019-05-01T05:02:11.987Z,38.50
2019-05-01T05:03:12.049Z,49.30
2019-05-01T05:04:12.021Z,51.20
2019-05-01T05:05:11.997Z,50.10
2019-05-01T05:06:11.977Z,49.60
2019-05-01T05:07:11.958Z,49.70
2019-05-01T05:08:11.918Z,49.40
2019-05-01T05:09:11.924Z,50.00
2019-05-01T05:10:11.902Z,46.30
2019-05-01T05:11:11.974Z,53.20
2019-05-01T05:12:12.019Z,52.80
2019-05-01T05:13:11.997Z,42.10
2019-05-01T05:14:11.910Z,53.20
2019-05-01T05:15:11.931Z,51.20
2019-05-01T05:16:11.879Z,50.40
2019-05-01T05:17:11.944Z,54.10
2019-05-01T05:18:11.800Z,53.30
2019-05-01T05:19:11.822Z,54.80
2019-05-01T05:20:11.931Z,54.80
2019-05-01T05:21:11.807Z,54.40
2019-05-01T05:22:11.893Z,51.00
2019-05-01T05:23:11.777Z,50.70
2019-05-01T05:24:11.732Z,49.70
2019-05-01T05:25:11.802Z,55.60
2019-05-01T05:26:11.804Z,52.90
2019-05-01T05:27:11.701Z,53.80
2019-05-01T05:28:11.890Z,50.80
2019-05-01T05:29:11.760Z,51.20
2019-05-01T05:30:11.663Z,51.00
2019-05-01T05:31:11.758Z,55.20
2019-05-01T05:32:11.683Z,55.70
2019-05-01T05:33:18.165Z,52.80
2019-05-01T05:34:12.766Z,41.50
2019-05-01T05:35:11.634Z,52.30
2019-05-01T05:36:11.615Z,51.80
2019-05-01T05:37:11.641Z,51.10
2019-05-01T05:38:11.646Z,46.50
2019-05-01T05:39:11.727Z,50.00
2019-05-01T05:40:11.587Z,52.90
2019-05-01T05:41:11.615Z,53.70
2019-05-01T05:42:11.570Z,50.20
2019-05-01T05:43:11.522Z,50.50
2019-05-01T05:44:11.628Z,46.20
2019-05-01T05:45:11.551Z,48.60
2019-05-01T05:46:11.695Z,51.10
2019-05-01T05:47:21.165Z,51.10
2019-05-01T05:48:11.469Z,50.80
2019-05-01T05:49:11.511Z,53.60
2019-05-01T05:50:11.513Z,55.00
2019-05-01T05:51:11.472Z,48.40
2019-05-01T05:52:11.435Z,48.50
2019-05-01T05:53:11.471Z,52.10
2019-05-01T05:54:11.449Z,52.20
2019-05-01T05:55:11.395Z,53.00
2019-05-01T05:56:11.474Z,55.10
2019-05-01T05:57:11.414Z,50.80
2019-05-01T05:58:11.394Z,51.90
2019-05-01T05:59:11.411Z,52.30
2019-05-01T06:00:11.356Z,50.20
2019-05-01T06:01:11.343Z,51.70
2019-05-01T06:02:11.373Z,53.30
2019-05-01T06:03:11.328Z,53.00
2019-05-01T06:04:11.402Z,54.60
2019-05-01T06:05:11.466Z,52.70
2019-05-01T06:06:11.303Z,54.30
2019-05-01T06:07:11.365Z,54.90
2019-05-01T06:08:11.368Z,54.00
2019-05-01T06:09:14.034Z,52.50
2019-05-01T06:10:11.384Z,52.00
2019-05-01T06:11:11.322Z,53.20
2019-05-01T06:12:11.263Z,55.00
2019-05-01T06:13:11.295Z,50.50
2019-05-01T06:14:11.230Z,52.70
2019-05-01T06:15:11.241Z,57.50
2019-05-01T06:16:27.214Z,40.70
2019-05-01T06:17:11.210Z,52.30
2019-05-01T06:18:11.238Z,50.30
2019-05-01T06:19:14.601Z,35.10
2019-05-01T06:20:12.145Z,51.40
2019-05-01T06:21:12.924Z,52.00
2019-05-01T06:22:11.674Z,42.20
2019-05-01T06:23:11.076Z,49.80
2019-05-01T06:24:11.081Z,46.70
2019-05-01T06:25:21.569Z,46.40
2019-05-01T06:26:12.057Z,40.60
2019-05-01T06:27:13.671Z,48.80
2019-05-01T06:28:24.630Z,49.00
2019-05-01T06:29:12.045Z,52.10
2019-05-01T06:30:18.584Z,52.30
2019-05-01T06:31:11.009Z,46.10
2019-05-01T06:32:18.555Z,47.00
2019-05-01T06:33:11.308Z,44.40
2019-05-01T06:34:10.977Z,46.30
2019-05-01T06:35:10.983Z,45.50
2019-05-01T06:36:13.274Z,47.50
2019-05-01T06:37:10.936Z,47.70
2019-05-01T06:38:10.928Z,49.30
2019-05-01T06:39:11.989Z,48.80
2019-05-01T06:40:10.904Z,50.90
2019-05-01T06:41:10.932Z,43.10
2019-05-01T06:42:15.233Z,49.00
2019-05-01T06:43:11.886Z,51.00
2019-05-01T06:44:10.861Z,48.70
2019-05-01T06:45:13.042Z,47.10
2019-05-01T06:46:11.863Z,48.00
2019-05-01T06:47:10.834Z,49.70
2019-05-01T06:48:14.190Z,46.90
2019-05-01T06:49:11.810Z,51.20
2019-05-01T06:50:10.794Z,53.10
2019-05-01T06:51:13.046Z,44.40
2019-05-01T06:52:11.803Z,44.90
2019-05-01T06:53:10.770Z,36.90
2019-05-01T06:54:16.123Z,50.40
2019-05-01T06:55:11.745Z,52.30
2019-05-01T06:56:10.775Z,50.30
2019-05-01T06:57:10.728Z,50.80
2019-05-01T06:58:14.795Z,50.90
2019-05-01T06:59:11.710Z,49.40
2019-05-01T07:00:10.695Z,50.70
2019-05-01T07:01:13.839Z,51.30
2019-05-01T07:02:11.673Z,50.00
2019-05-01T07:03:11.664Z,51.30
2019-05-01T07:04:10.666Z,50.80
2019-05-01T07:05:14.699Z,52.50
2019-05-01T07:06:14.354Z,51.80
2019-05-01T07:07:24.669Z,53.80
2019-05-01T07:08:23.968Z,51.60
2019-05-01T07:09:12.201Z,48.30
2019-05-01T07:10:10.586Z,48.00
2019-05-01T07:11:10.944Z,49.80
2019-05-01T07:12:10.567Z,48.80
2019-05-01T07:13:19.184Z,48.30
2019-05-01T07:14:11.217Z,46.30
2019-05-01T07:15:11.528Z,47.20
2019-05-01T07:16:10.551Z,47.00
2019-05-01T07:17:13.572Z,47.00
2019-05-01T07:18:11.580Z,45.50
2019-05-01T07:19:10.505Z,48.50
2019-05-01T07:20:11.910Z,46.00
2019-05-01T07:21:11.487Z,45.10
2019-05-01T07:22:10.489Z,46.20
2019-05-01T07:23:12.689Z,46.70
2019-05-01T07:24:11.437Z,44.10
2019-05-01T07:25:10.426Z,46.40
2019-05-01T07:26:13.739Z,49.90
2019-05-01T07:27:10.407Z,49.10
2019-05-01T07:28:10.422Z,46.30
2019-05-01T07:29:11.077Z,47.30
2019-05-01T07:30:10.372Z,49.60
2019-05-01T07:31:10.369Z,49.80
2019-05-01T07:32:10.363Z,49.20
2019-05-01T07:33:12.018Z,48.20
2019-05-01T07:34:16.673Z,47.80
2019-05-01T07:35:11.319Z,49.50
2019-05-01T07:36:15.396Z,48.90
2019-05-01T07:37:11.303Z,46.20
2019-05-01T07:38:10.284Z,46.50
2019-05-01T07:39:14.759Z,49.80
2019-05-01T07:40:11.273Z,49.20
2019-05-01T07:41:12.371Z,51.80
2019-05-01T07:42:12.386Z,46.00
2019-05-01T07:43:10.233Z,49.90
2019-05-01T07:44:10.252Z,52.50
2019-05-01T07:45:10.219Z,50.20
2019-05-01T07:46:13.707Z,50.80
2019-05-01T07:47:11.200Z,48.60
2019-05-01T07:48:10.184Z,49.80
2019-05-01T07:49:12.984Z,51.90
2019-05-01T07:50:11.162Z,51.20
2019-05-01T07:51:10.226Z,50.90
2019-05-01T07:52:12.576Z,43.80
2019-05-01T07:53:11.140Z,46.60
2019-05-01T07:54:10.140Z,51.70
2019-05-01T07:55:13.026Z,48.20
2019-05-01T07:56:11.099Z,49.90
2019-05-01T07:57:10.082Z,51.70
2019-05-01T07:58:15.226Z,50.90
2019-05-01T07:59:11.125Z,50.40
2019-05-01T08:00:10.101Z,52.30
2019-05-01T08:01:13.072Z,50.60
2019-05-01T08:02:11.034Z,52.70
2019-05-01T08:03:10.045Z,49.80
2019-05-01T08:04:13.877Z,49.20
2019-05-01T08:05:11.759Z,52.40
2019-05-01T08:06:21.440Z,51.80
2019-05-01T08:07:10.980Z,52.90
2019-05-01T08:08:09.994Z,49.90
2019-05-01T08:09:11.329Z,49.30
2019-05-01T08:10:10.967Z,50.30
2019-05-01T08:11:10.374Z,50.30
2019-05-01T08:12:09.925Z,50.40
2019-05-01T08:13:09.914Z,52.80
2019-05-01T08:14:11.941Z,44.80
2019-05-01T08:15:10.915Z,46.20
2019-05-01T08:16:09.882Z,50.50
2019-05-01T08:17:12.812Z,51.40
2019-05-01T08:18:10.860Z,50.20
2019-05-01T08:19:09.853Z,50.60
2019-05-01T08:20:14.697Z,47.50
2019-05-01T08:21:10.826Z,48.70
2019-05-01T08:22:09.817Z,52.00
2019-05-01T08:23:12.154Z,49.40
2019-05-01T08:24:09.798Z,49.90
2019-05-01T08:25:09.787Z,47.60
2019-05-01T08:26:10.314Z,46.50
2019-05-01T08:27:09.764Z,47.20
2019-05-01T08:28:09.752Z,46.10
2019-05-01T08:29:09.746Z,46.60
2019-05-01T08:30:12.864Z,44.60
2019-05-01T08:31:11.367Z,44.20
2019-05-01T08:32:09.715Z,44.50
2019-05-01T08:33:14.162Z,44.50
2019-05-01T08:34:10.689Z,46.80
2019-05-01T08:35:09.680Z,45.40
2019-05-01T08:36:11.683Z,46.60
2019-05-01T08:37:09.679Z,45.70
2019-05-01T08:38:09.647Z,45.70
2019-05-01T08:39:10.810Z,46.30
2019-05-01T08:40:09.637Z,45.00
2019-05-01T08:41:09.617Z,44.40
2019-05-01T08:42:09.627Z,45.10
2019-05-01T08:43:09.593Z,47.20
2019-05-01T08:44:09.585Z,44.10
2019-05-01T08:45:09.579Z,44.60
2019-05-01T08:46:11.900Z,45.70
2019-05-01T08:47:10.578Z,45.70
2019-05-01T08:48:09.543Z,47.30
2019-05-01T08:49:11.442Z,47.70
2019-05-01T08:50:09.520Z,46.80
2019-05-01T08:51:09.576Z,46.20
2019-05-01T08:52:12.922Z,45.70
2019-05-01T08:53:09.675Z,45.40
2019-05-01T08:54:09.500Z,46.40
2019-05-01T08:55:10.848Z,47.00
2019-05-01T08:56:09.838Z,45.70
2019-05-01T08:57:09.448Z,46.60
2019-05-01T08:58:13.922Z,43.80
2019-05-01T08:59:09.424Z,38.10
2019-05-01T09:00:09.415Z,43.40
2019-05-01T09:01:10.887Z,43.50
2019-05-01T09:02:10.433Z,43.10
2019-05-01T09:03:13.595Z,44.70
2019-05-01T09:04:13.023Z,42.30
2019-05-01T09:05:27.544Z,43.00
2019-05-01T09:06:10.426Z,39.20
2019-05-01T09:07:09.344Z,45.30
2019-05-01T09:08:09.375Z,47.80
2019-05-01T09:09:10.323Z,47.10
2019-05-01T09:10:09.425Z,44.40
2019-05-01T09:11:09.825Z,48.80
2019-05-01T09:12:11.737Z,47.40
2019-05-01T09:13:09.302Z,47.30
2019-05-01T09:14:09.274Z,46.90
2019-05-01T09:15:12.681Z,52.10
2019-05-01T09:16:10.248Z,51.00
2019-05-01T09:17:09.240Z,50.90
2019-05-01T09:18:09.247Z,48.70
2019-05-01T09:19:09.218Z,47.90
2019-05-01T09:20:09.209Z,48.80
2019-05-01T09:21:09.191Z,48.10
2019-05-01T09:22:09.180Z,48.90
2019-05-01T09:23:09.427Z,48.00
2019-05-01T09:24:09.163Z,47.50
2019-05-01T09:25:09.149Z,45.10
2019-05-01T09:26:14.794Z,46.80
2019-05-01T09:27:10.130Z,46.40
2019-05-01T09:28:09.138Z,48.00
2019-05-01T09:29:11.075Z,47.80
2019-05-01T09:30:10.099Z,47.60
2019-05-01T09:31:09.083Z,49.70
2019-05-01T09:32:10.278Z,46.90
2019-05-01T09:33:09.086Z,49.20
2019-05-01T09:34:09.569Z,48.20
2019-05-01T09:35:15.558Z,49.10
2019-05-01T09:36:10.032Z,49.20
2019-05-01T09:37:09.030Z,49.50
2019-05-01T09:38:09.036Z,47.70
2019-05-01T09:39:09.006Z,48.20
2019-05-01T09:40:10.292Z,50.10
2019-05-01T09:41:08.982Z,47.60
2019-05-01T09:42:08.975Z,50.00
2019-05-01T09:43:08.975Z,48.30
2019-05-01T09:44:10.694Z,51.70
2019-05-01T09:45:08.938Z,49.50
2019-05-01T09:46:08.929Z,47.70
2019-05-01T09:47:08.914Z,49.50
2019-05-01T09:48:08.905Z,52.10
2019-05-01T09:49:08.912Z,50.10
2019-05-01T09:50:08.899Z,44.50
2019-05-01T09:51:08.872Z,47.70
2019-05-01T09:52:08.867Z,47.00
2019-05-01T09:53:08.864Z,48.60
2019-05-01T09:54:09.824Z,47.20
2019-05-01T09:55:08.831Z,48.50
2019-05-01T09:56:09.163Z,49.00
2019-05-01T09:57:08.817Z,49.50
2019-05-01T09:58:08.801Z,47.70
2019-05-01T09:59:12.597Z,48.50
2019-05-01T10:00:09.777Z,47.70
2019-05-01T10:01:08.766Z,48.40
2019-05-01T10:02:09.151Z,48.10
2019-05-01T10:03:13.192Z,48.30
2019-05-01T10:04:09.759Z,48.10
2019-05-01T10:05:08.726Z,49.20
2019-05-01T10:06:08.713Z,48.80
2019-05-01T10:07:08.705Z,47.40
2019-05-01T10:08:09.343Z,42.60
2019-05-01T10:09:11.990Z,48.60
2019-05-01T10:10:09.672Z,48.70
2019-05-01T10:11:08.665Z,49.00
2019-05-01T10:12:11.622Z,45.80
2019-05-01T10:13:08.639Z,46.70
2019-05-01T10:14:08.654Z,48.10
2019-05-01T10:15:08.622Z,46.40
2019-05-01T10:16:08.613Z,49.20
2019-05-01T10:17:08.595Z,50.30
2019-05-01T10:18:08.588Z,50.00
2019-05-01T10:19:08.577Z,50.80
2019-05-01T10:20:08.609Z,49.40
2019-05-01T10:21:08.558Z,51.00
2019-05-01T10:22:08.552Z,50.10
2019-05-01T10:23:13.043Z,51.50
2019-05-01T10:24:09.521Z,46.90
2019-05-01T10:25:12.263Z,42.80
2019-05-01T10:26:08.504Z,48.00
2019-05-01T10:27:08.493Z,51.20
2019-05-01T10:28:12.713Z,50.40
2019-05-01T10:29:09.475Z,48.90
2019-05-01T10:30:08.481Z,50.80
2019-05-01T10:31:11.957Z,48.00
2019-05-01T10:32:08.439Z,50.10
2019-05-01T10:33:08.430Z,50.70
2019-05-01T10:34:09.161Z,50.60
2019-05-01T10:35:08.446Z,48.60
2019-05-01T10:36:12.829Z,49.60
2019-05-01T10:37:09.385Z,45.80
2019-05-01T10:38:09.340Z,50.50
2019-05-01T10:39:08.374Z,50.80
2019-05-01T10:40:08.365Z,51.30
2019-05-01T10:41:09.262Z,51.50
2019-05-01T10:42:08.336Z,50.50
2019-05-01T10:43:08.325Z,51.90
2019-05-01T10:44:08.323Z,50.90
2019-05-01T10:45:08.311Z,44.00
2019-05-01T10:46:08.316Z,48.00
2019-05-01T10:47:08.289Z,50.30
2019-05-01T10:48:08.282Z,48.50
2019-05-01T10:49:08.257Z,49.20
2019-05-01T10:50:08.257Z,46.30
2019-05-01T10:51:08.268Z,48.10
2019-05-01T10:52:14.215Z,48.50
2019-05-01T10:53:09.296Z,45.00
2019-05-01T10:54:08.221Z,49.20
2019-05-01T10:55:08.217Z,49.00
2019-05-01T10:56:08.200Z,49.20
2019-05-01T10:57:08.183Z,48.60
2019-05-01T10:58:12.758Z,49.50
2019-05-01T10:59:09.152Z,50.30
2019-05-01T11:00:08.142Z,50.00
2019-05-01T11:01:08.162Z,50.40
2019-05-01T11:02:08.124Z,49.90
2019-05-01T11:03:08.124Z,51.20
2019-05-01T11:04:08.100Z,48.90
2019-05-01T11:05:08.098Z,43.50
2019-05-01T11:06:08.098Z,44.70
2019-05-01T11:07:08.078Z,48.50
2019-05-01T11:08:08.063Z,51.10
2019-05-01T11:09:08.049Z,50.60
2019-05-01T11:10:08.035Z,51.50
2019-05-01T11:11:08.044Z,53.70
2019-05-01T11:12:08.018Z,44.00
2019-05-01T11:13:08.055Z,50.90
2019-05-01T11:14:08.032Z,43.70
2019-05-01T11:15:08.224Z,50.70
2019-05-01T11:16:08.008Z,50.20
2019-05-01T11:17:07.974Z,52.70
2019-05-01T11:18:07.958Z,52.90
2019-05-01T11:19:07.938Z,52.00
2019-05-01T11:20:07.935Z,50.80
2019-05-01T11:21:07.964Z,51.90
2019-05-01T11:22:07.912Z,51.30
2019-05-01T11:23:07.901Z,49.40
2019-05-01T11:24:07.905Z,46.00
2019-05-01T11:25:07.878Z,51.10
2019-05-01T11:26:07.905Z,52.20
2019-05-01T11:27:07.878Z,52.00
2019-05-01T11:28:07.876Z,52.60
2019-05-01T11:29:07.859Z,53.40
2019-05-01T11:30:07.835Z,53.30
2019-05-01T11:31:07.835Z,53.60
2019-05-01T11:32:07.807Z,53.50
2019-05-01T11:33:07.788Z,52.30
2019-05-01T11:34:07.809Z,51.30
2019-05-01T11:35:07.840Z,48.60
2019-05-01T11:36:09.782Z,50.20
2019-05-01T11:37:07.787Z,48.70
2019-05-01T11:38:07.748Z,49.20
2019-05-01T11:39:07.791Z,50.00
2019-05-01T11:40:07.722Z,49.90
2019-05-01T11:41:07.725Z,50.30
2019-05-01T11:42:07.700Z,49.20
2019-05-01T11:43:07.683Z,50.60
2019-05-01T11:44:07.675Z,49.00
2019-05-01T11:45:07.669Z,48.70
2019-05-01T11:46:07.663Z,48.70
2019-05-01T11:47:07.664Z,49.40
2019-05-01T11:48:07.628Z,46.90
2019-05-01T11:49:07.617Z,47.70
2019-05-01T11:50:07.607Z,47.70
2019-05-01T11:51:07.606Z,47.00
2019-05-01T11:52:07.606Z,46.80
2019-05-01T11:53:07.575Z,46.70
2019-05-01T11:54:07.591Z,45.80
2019-05-01T11:55:07.591Z,46.70
2019-05-01T11:56:07.544Z,48.80
2019-05-01T11:57:07.557Z,48.10
2019-05-01T11:58:07.523Z,47.50
2019-05-01T11:59:07.511Z,47.90
2019-05-01T12:00:07.501Z,48.20
2019-05-01T12:01:07.497Z,47.60
2019-05-01T12:02:07.499Z,48.50
2019-05-01T12:03:07.471Z,47.60
2019-05-01T12:04:07.466Z,47.20
2019-05-01T12:05:07.547Z,48.10
2019-05-01T12:06:07.450Z,49.40
2019-05-01T12:07:07.448Z,48.60
2019-05-01T12:08:07.417Z,48.00
2019-05-01T12:09:07.406Z,50.50
2019-05-01T12:10:07.400Z,45.80
2019-05-01T12:11:07.388Z,49.20
2019-05-01T12:12:07.396Z,48.10
2019-05-01T12:13:07.365Z,47.80
2019-05-01T12:14:07.352Z,47.30
2019-05-01T12:15:07.348Z,45.90
2019-05-01T12:16:07.336Z,46.00
2019-05-01T12:17:07.341Z,48.20
2019-05-01T12:18:07.311Z,46.90
2019-05-01T12:19:07.313Z,47.30
2019-05-01T12:20:07.306Z,46.20
2019-05-01T12:21:07.321Z,46.20
2019-05-01T12:22:07.270Z,48.70
2019-05-01T12:23:07.293Z,50.00
2019-05-01T12:24:07.261Z,49.90
2019-05-01T12:25:07.877Z,49.70
2019-05-01T12:26:07.231Z,49.60
2019-05-01T12:27:07.224Z,47.90
2019-05-01T12:28:07.222Z,47.70
2019-05-01T12:29:07.192Z,48.60
2019-05-01T12:30:07.192Z,47.10
2019-05-01T12:31:07.171Z,43.70
2019-05-01T12:32:07.162Z,47.30
2019-05-01T12:33:07.171Z,46.50
2019-05-01T12:34:07.146Z,47.90
2019-05-01T12:35:07.129Z,49.70
2019-05-01T12:36:07.121Z,49.20
2019-05-01T12:37:07.114Z,52.60
2019-05-01T12:38:07.120Z,51.40
2019-05-01T12:39:07.174Z,48.60
2019-05-01T12:40:07.080Z,52.10
2019-05-01T12:41:07.078Z,52.60
2019-05-01T12:42:07.080Z,52.60
2019-05-01T12:43:07.066Z,50.90
2019-05-01T12:44:07.035Z,52.20
2019-05-01T12:45:07.031Z,50.90
2019-05-01T12:46:07.014Z,50.70
2019-05-01T12:47:07.004Z,51.10
2019-05-01T12:48:07.098Z,48.60
2019-05-01T12:49:07.882Z,49.90
2019-05-01T12:50:06.972Z,50.20
2019-05-01T12:51:06.967Z,50.50
2019-05-01T12:52:10.639Z,51.30
2019-05-01T12:53:06.999Z,50.70
2019-05-01T12:54:06.928Z,50.30
2019-05-01T12:55:06.924Z,50.00
2019-05-01T12:56:06.912Z,47.30
2019-05-01T12:57:06.904Z,46.20
2019-05-01T12:58:06.978Z,48.80
2019-05-01T12:59:06.943Z,51.40
2019-05-01T13:00:08.966Z,52.00
2019-05-01T13:01:07.863Z,53.30
2019-05-01T13:02:06.845Z,53.10
2019-05-01T13:03:06.843Z,52.80
2019-05-01T13:04:06.845Z,52.50
2019-05-01T13:05:06.815Z,52.20
2019-05-01T13:06:06.808Z,52.20
2019-05-01T13:07:06.795Z,52.70